TimePST,TemperatureF,Dew PointF,Humidity,Sea Level PressureIn,VisibilityMPH,Wind Direction,Wind SpeedMPH,Gust SpeedMPH,PrecipitationIn,Events,Conditions,WindDirDegrees,DateUTC
12:53 AM,52.0,35.1,53,29.90,10.0,SSE,3.5,-,N/A,,Clear,160,2014-01-04 08:53:00
1:53 AM,52.0,34.0,50,29.89,10.0,SSW,3.5,-,N/A,,Clear,210,2014-01-04 09:53:00
2:53 AM,53.1,34.0,48,29.90,10.0,NE,3.5,-,N/A,,Clear,40,2014-01-04 10:53:00
3:53 AM,52.0,37.0,57,29.89,10.0,ESE,3.5,-,N/A,,Clear,120,2014-01-04 11:53:00
4:53 AM,53.1,37.0,55,29.88,10.0,Calm,Calm,-,N/A,,Clear,0,2014-01-04 12:53:00
5:53 AM,52.0,37.9,59,29.90,9.0,Calm,Calm,-,N/A,,Clear,0,2014-01-04 13:53:00
6:53 AM,52.0,39.9,63,29.91,9.0,ENE,5.8,-,N/A,,Clear,60,2014-01-04 14:53:00
7:53 AM,52.0,42.1,69,29.93,8.0,East,4.6,-,N/A,,Clear,100,2014-01-04 15:53:00
8:53 AM,55.0,39.9,57,29.95,10.0,Calm,Calm,-,N/A,,Clear,0,2014-01-04 16:53:00
9:53 AM,57.9,44.1,60,29.96,10.0,ESE,5.8,-,N/A,,Clear,110,2014-01-04 17:53:00
10:53 AM,61.0,46.9,60,29.94,10.0,SE,3.5,-,N/A,,Clear,130,2014-01-04 18:53:00
11:53 AM,64.9,46.0,50,29.92,9.0,Calm,Calm,-,N/A,,Clear,0,2014-01-04 19:53:00
12:53 PM,68.0,48.9,50,29.89,9.0,Variable,3.5,-,N/A,,Clear,0,2014-01-04 20:53:00
1:53 PM,71.1,46.9,42,29.89,10.0,ESE,5.8,-,N/A,,Clear,120,2014-01-04 21:53:00
2:53 PM,71.1,48.0,44,29.90,10.0,East,4.6,-,N/A,,Clear,100,2014-01-04 22:53:00
3:53 PM,72.0,45.0,38,29.91,10.0,ENE,3.5,-,N/A,,Clear,60,2014-01-04 23:53:00
4:53 PM,64.9,48.9,56,29.92,10.0,NNW,5.8,-,N/A,,Clear,340,2014-01-05 00:53:00
5:53 PM,60.1,45.0,57,29.94,9.0,West,3.5,-,N/A,,Clear,270,2014-01-05 01:53:00
6:53 PM,57.9,44.1,60,29.96,10.0,East,3.5,-,N/A,,Clear,90,2014-01-05 02:53:00
7:53 PM,55.0,46.0,72,29.98,9.0,NE,4.6,-,N/A,,Clear,50,2014-01-05 03:53:00
8:53 PM,54.0,46.0,75,29.99,9.0,Calm,Calm,-,N/A,,Clear,0,2014-01-05 04:53:00
9:53 PM,48.9,42.1,77,30.01,8.0,SW,3.5,-,N/A,,Clear,230,2014-01-05 05:53:00
10:53 PM,46.9,43.0,86,30.03,7.0,SW,3.5,-,N/A,,Clear,230,2014-01-05 06:53:00
11:53 PM,46.0,39.0,76,30.04,8.0,West,5.8,-,N/A,,Clear,270,2014-01-05 07:53:00